Time;durP1;ratioP1;P1;durP2;ratioP2;P2;SDS_P1;SDS_P2;PMS_P1;PMS_P2;Temp;Humidity;BMP_temperature;BMP_pressure;BME280_temperature;BME280_humidity;BME280_pressure;Samples;Min_cycle;Max_cycle;Signal;HPM_P1;HPM_P2
2021/07/02 00:02:16;;;;;;;4.65;2.85;;;;;;;19.85;60.92;99995.75;5048277;27;97163;-81
2021/07/02 00:04:42;;;;;;;11.30;2.83;;;;;;;19.80;60.96;99995.25;5053655;27;101754;-81
2021/07/02 00:07:08;;;;;;;6.75;2.42;;;;;;;19.84;61.14;99992.25;5068565;27;97371;-80
2021/07/02 00:09:33;;;;;;;3.42;2.72;;;;;;;19.62;61.63;99982.38;5037093;27;97115;-81
2021/07/02 00:11:59;;;;;;;3.75;2.88;;;;;;;19.65;61.49;99989.31;5066495;27;97194;-81
2021/07/02 00:14:25;;;;;;;2.78;2.53;;;;;;;19.63;61.28;99989.41;5072384;27;97366;-81
2021/07/02 00:16:50;;;;;;;4.68;2.65;;;;;;;19.50;61.78;99982.47;5037172;27;101411;-81
2021/07/02 00:19:16;;;;;;;4.85;2.97;;;;;;;19.43;61.84;99974.97;5038332;27;96643;-80
2021/07/02 00:21:42;;;;;;;3.13;2.83;;;;;;;19.47;61.58;99980.88;5054511;27;96858;-80
2021/07/02 00:24:07;;;;;;;8.75;3.22;;;;;;;19.53;61.76;99979.56;5072209;27;97384;-80
2021/07/02 00:26:35;;;;;;;10.00;3.20;;;;;;;19.40;62.27;99982.31;5051387;27;101358;-82
2021/07/02 00:29:01;;;;;;;4.25;3.10;;;;;;;19.41;62.14;99986.69;5050700;27;96685;-81
2021/07/02 00:31:26;;;;;;;4.72;3.22;;;;;;;19.39;61.89;99983.28;5071781;27;96801;-79
2021/07/02 00:33:52;;;;;;;6.60;2.83;;;;;;;19.45;61.64;99986.31;5050049;27;101807;-81
2021/07/02 00:36:17;;;;;;;4.28;3.13;;;;;;;19.43;61.90;99985.59;5047888;27;100891;-81
2021/07/02 00:38:43;;;;;;;7.22;3.50;;;;;;;19.31;62.05;99985.66;5054346;27;96698;-81
2021/07/02 00:41:09;;;;;;;6.47;3.50;;;;;;;19.35;61.83;99987.16;5072470;27;97061;-82
2021/07/02 00:43:36;;;;;;;3.50;2.92;;;;;;;19.37;61.46;99990.50;5054139;27;101557;-81
2021/07/02 00:46:02;;;;;;;3.67;3.13;;;;;;;19.27;61.72;99985.06;5054468;27;101756;-80
2021/07/02 00:48:28;;;;;;;3.63;3.00;;;;;;;19.20;61.94;99987.34;5072146;27;96775;-82
2021/07/02 00:51:12;;;;;;;5.97;3.58;;;;;;;19.29;61.75;99982.28;5072440;27;97547;-82
2021/07/02 00:53:40;;;;;;;3.75;2.83;;;;;;;19.20;61.72;99975.84;5036736;27;101532;-80
2021/07/02 00:56:08;;;;;;;3.03;2.65;;;;;;;19.26;61.61;99977.16;5054739;27;101032;-82
2021/07/02 00:58:33;;;;;;;6.03;4.03;;;;;;;19.14;61.89;99968.31;5071896;27;96683;-81
2021/07/02 01:01:00;;;;;;;5.03;3.22;;;;;;;19.07;62.21;99975.06;5070782;27;96954;-82
2021/07/02 01:03:26;;;;;;;3.92;2.92;;;;;;;19.14;62.08;99973.63;5053901;27;101210;-82
2021/07/02 01:05:52;;;;;;;5.90;2.80;;;;;;;19.00;62.15;99975.53;5052981;27;98084;-82
2021/07/02 01:08:18;;;;;;;4.95;3.13;;;;;;;19.02;62.17;99978.06;5051209;27;96618;-79
2021/07/02 01:10:44;;;;;;;5.97;3.63;;;;;;;18.94;62.78;99973.31;5036040;27;97127;-82
2021/07/02 01:13:11;;;;;;;3.33;2.83;;;;;;;18.96;62.16;99981.16;5064478;27;101378;-80
2021/07/02 01:15:37;;;;;;;4.45;3.70;;;;;;;18.95;61.94;99980.31;5054274;27;101834;-81
2021/07/02 01:18:13;;;;;;;5.20;2.85;;;;;;;18.89;61.96;99980.78;5044641;27;97244;-82
2021/07/02 01:20:41;;;;;;;5.13;3.03;;;;;;;18.94;61.68;99981.31;5035333;27;96867;-80
2021/07/02 01:23:07;;;;;;;6.80;2.85;;;;;;;18.83;61.94;99978.59;5054282;27;99050;-80
2021/07/02 01:25:35;;;;;;;4.38;3.03;;;;;;;18.74;62.13;99982.78;5053912;27;101287;-81
2021/07/02 01:28:05;;;;;;;3.15;2.85;;;;;;;18.67;62.00;99976.16;5038491;27;97107;-82
2021/07/02 01:30:31;;;;;;;4.85;3.15;;;;;;;18.66;62.13;99985.09;5054249;27;96729;-82
2021/07/02 01:32:57;;;;;;;6.10;3.08;;;;;;;18.66;62.28;99970.97;5035970;27;100635;-81
2021/07/02 01:35:23;;;;;;;8.32;3.17;;;;;;;18.62;62.13;99967.69;5034995;27;100907;-82
2021/07/02 01:37:48;;;;;;;4.43;2.97;;;;;;;18.61;62.25;99973.09;5066241;27;97432;-81
2021/07/02 01:40:15;;;;;;;7.10;3.30;;;;;;;18.46;62.42;99967.09;5040948;27;97171;-82
2021/07/02 01:42:41;;;;;;;6.38;3.20;;;;;;;18.37;62.92;99960.63;5052937;27;101438;-79
2021/07/02 01:45:08;;;;;;;6.03;3.85;;;;;;;18.41;62.33;99961.25;5052637;27;101589;-82
2021/07/02 01:47:35;;;;;;;5.70;3.80;;;;;;;18.37;62.67;99957.13;5030320;27;97110;-81
2021/07/02 01:50:01;;;;;;;6.53;3.97;;;;;;;18.35;62.52;99961.69;5053423;27;97298;-81
2021/07/02 01:52:28;;;;;;;6.07;3.80;;;;;;;18.35;62.61;99961.69;5066485;27;98091;-82
2021/07/02 01:54:54;;;;;;;4.60;3.17;;;;;;;18.27;62.75;99964.94;5073659;27;98406;-82
2021/07/02 01:57:25;;;;;;;4.75;3.30;;;;;;;18.27;62.62;99963.13;5057818;27;97111;-80
2021/07/02 01:59:53;;;;;;;4.47;3.42;;;;;;;18.22;62.84;99961.75;5056414;27;96861;-82
2021/07/02 02:02:18;;;;;;;7.88;3.35;;;;;;;18.28;62.51;99961.31;5073631;27;100976;-80
2021/07/02 02:04:49;;;;;;;6.03;3.33;;;;;;;18.18;62.95;99961.13;5049734;27;100658;-82
2021/07/02 02:07:16;;;;;;;5.53;3.55;;;;;;;18.12;63.25;99960.69;5031602;27;96558;-82
2021/07/02 02:09:43;;;;;;;6.18;3.45;;;;;;;18.08;63.05;99962.72;5039366;27;97172;-79
2021/07/02 02:12:09;;;;;;;7.20;3.38;;;;;;;18.12;63.19;99974.81;5053346;27;101351;-82
2021/07/02 02:14:42;;;;;;;6.03;2.97;;;;;;;18.10;63.05;99969.63;5037221;27;101759;-80
2021/07/02 02:17:10;;;;;;;5.78;3.20;;;;;;;18.23;62.69;99982.03;5036624;27;96968;-81
2021/07/02 02:19:37;;;;;;;6.93;3.40;;;;;;;18.15;63.19;99982.59;5048400;27;97136;-82
2021/07/02 02:22:03;;;;;;;9.02;3.55;;;;;;;18.19;62.90;99973.44;5049795;27;101342;-81
2021/07/02 02:24:37;;;;;;;7.28;2.70;;;;;;;18.17;62.76;99972.69;5055187;27;101257;-82
2021/07/02 02:27:03;;;;;;;11.05;2.70;;;;;;;18.24;62.86;99973.97;5038626;27;96644;-81
2021/07/02 02:29:30;;;;;;;3.60;2.10;;;;;;;18.19;63.10;99977.91;5053543;27;97100;-81
2021/07/02 02:31:56;;;;;;;3.75;2.40;;;;;;;18.29;62.61;99970.97;5034619;27;101118;-82
2021/07/02 02:34:22;;;;;;;2.42;1.80;;;;;;;18.25;63.17;99974.81;5073895;27;97237;-82
2021/07/02 02:36:49;;;;;;;3.60;2.38;;;;;;;18.28;62.76;99972.78;5056417;27;96691;-82
2021/07/02 02:39:16;;;;;;;4.03;2.42;;;;;;;18.30;62.76;99970.03;5040210;27;96820;-82
2021/07/02 02:41:42;;;;;;;4.05;2.45;;;;;;;18.31;62.38;99971.72;5038555;27;100725;-79
2021/07/02 02:44:07;;;;;;;3.70;2.17;;;;;;;18.37;62.57;99970.44;5029353;27;101448;-81
2021/07/02 02:46:34;;;;;;;8.23;2.75;;;;;;;18.35;62.55;99965.19;5056475;27;97000;-82
2021/07/02 02:48:59;;;;;;;6.00;3.00;;;;;;;18.37;62.48;99970.44;5056200;27;97228;-81
2021/07/02 02:51:26;;;;;;;4.55;2.20;;;;;;;18.28;63.08;99959.50;5055761;27;101627;-81
2021/07/02 02:53:51;;;;;;;10.90;2.97;;;;;;;18.29;62.69;99973.63;5038589;27;101322;-82
2021/07/02 02:56:18;;;;;;;5.75;2.22;;;;;;;18.35;62.77;99965.19;5055822;27;97354;-81
2021/07/02 02:58:44;;;;;;;4.03;2.53;;;;;;;18.38;62.60;99964.13;5039060;27;97123;-80
2021/07/02 03:01:10;;;;;;;7.38;2.50;;;;;;;18.39;62.97;99977.31;5054633;27;101209;-80
2021/07/02 03:03:36;;;;;;;3.05;2.00;;;;;;;18.39;62.57;99972.00;5055982;27;101437;-81
2021/07/02 03:06:02;;;;;;;3.75;1.92;;;;;;;18.38;62.37;99961.47;5041496;27;96765;-81
2021/07/02 03:08:27;;;;;;;5.72;2.05;;;;;;;18.43;62.39;99965.50;5039409;27;96896;-81
2021/07/02 03:10:55;;;;;;;7.95;2.40;;;;;;;18.40;62.55;99975.50;5059685;27;101671;-81
2021/07/02 03:13:21;;;;;;;4.07;2.13;;;;;;;18.36;62.58;99958.09;5065311;27;100599;-81
2021/07/02 03:15:47;;;;;;;2.05;1.85;;;;;;;18.35;62.66;99954.56;5055403;27;96733;-80
2021/07/02 03:18:12;;;;;;;2.75;1.98;;;;;;;18.39;62.36;99958.72;5056529;27;96748;-81
2021/07/02 03:20:39;;;;;;;3.42;1.95;;;;;;;18.41;62.53;99961.25;5038796;27;101192;-79
2021/07/02 03:23:05;;;;;;;3.33;1.83;;;;;;;18.38;62.37;99958.81;5051516;27;101450;-80
2021/07/02 03:25:31;;;;;;;4.65;2.10;;;;;;;18.33;62.51;99956.53;5035652;27;97037;-81
2021/07/02 03:27:58;;;;;;;3.78;2.42;;;;;;;18.37;62.65;99960.63;5026232;27;97147;-80
2021/07/02 03:30:27;;;;;;;3.75;2.50;;;;;;;18.37;62.61;99970.44;5054196;27;101797;-80
2021/07/02 03:32:52;;;;;;;6.55;2.40;;;;;;;18.38;62.41;99975.63;5051251;27;101173;-80
2021/07/02 03:35:18;;;;;;;5.88;2.00;;;;;;;18.44;62.75;99982.28;5071095;27;97042;-79
2021/07/02 03:37:44;;;;;;;2.65;2.03;;;;;;;18.48;62.31;99979.31;5052668;27;97078;-79
2021/07/02 03:40:11;;;;;;;2.42;2.05;;;;;;;18.37;63.00;99989.03;5036432;27;100331;-79
2021/07/02 03:42:41;;;;;;;;;;;;;;;18.32;62.84;99997.31;5056086;27;99356;-78
2021/07/02 03:45:08;;;;;;;4.68;2.05;;;;;;;18.26;63.08;99992.44;5038641;27;96773;-81
2021/07/02 03:47:36;;;;;;;3.60;1.85;;;;;;;18.38;63.06;100001.34;5072824;27;97142;-82
2021/07/02 03:50:04;;;;;;;6.10;2.50;;;;;;;18.40;62.72;100004.75;5037886;27;101618;-81
2021/07/02 03:52:32;;;;;;;3.70;2.20;;;;;;;18.51;62.64;100008.31;5071828;27;101472;-81
2021/07/02 03:54:59;;;;;;;6.18;2.00;;;;;;;18.61;62.27;99997.88;5037988;27;97037;-82
2021/07/02 03:57:24;;;;;;;4.53;2.00;;;;;;;18.74;62.17;99990.75;5055945;27;97262;-81
2021/07/02 03:59:51;;;;;;;4.18;2.03;;;;;;;18.98;61.85;99996.06;5070244;27;98166;-81
2021/07/02 04:02:18;;;;;;;4.30;2.03;;;;;;;18.93;61.76;99987.56;5055460;27;98038;-80
2021/07/02 04:04:44;;;;;;;2.83;1.90;;;;;;;19.04;61.47;99997.41;5038129;27;96711;-78
2021/07/02 04:07:11;;;;;;;3.33;2.03;;;;;;;19.09;61.60;100005.91;5042008;27;96874;-80
2021/07/02 04:09:37;;;;;;;3.13;2.05;;;;;;;19.11;61.21;100005.78;5049579;27;101043;-81
2021/07/02 04:12:04;;;;;;;4.90;2.08;;;;;;;19.22;60.91;100000.50;5084380;27;97377;-81
2021/07/02 04:14:30;;;;;;;4.97;2.22;;;;;;;19.19;60.88;100000.75;5047544;27;97271;-82
2021/07/02 04:16:56;;;;;;;4.38;2.63;;;;;;;19.25;60.82;100005.59;5044006;27;96982;-81
2021/07/02 04:19:22;;;;;;;6.50;2.45;;;;;;;19.32;60.55;100003.34;5034539;27;101696;-80
2021/07/02 04:21:48;;;;;;;4.03;2.40;;;;;;;19.29;61.21;99996.44;5047042;27;100825;-80
2021/07/02 04:24:13;;;;;;;6.78;2.33;;;;;;;19.28;60.59;100000.03;5055155;27;96978;-80
2021/07/02 04:26:39;;;;;;;3.88;2.55;;;;;;;19.25;60.59;100000.28;5038644;27;97029;-80
2021/07/02 04:29:05;;;;;;;3.72;2.63;;;;;;;19.31;60.40;100007.78;5047086;27;101390;-80
2021/07/02 04:31:30;;;;;;;4.53;2.30;;;;;;;19.22;60.79;100000.50;5030746;27;101439;-80
2021/07/02 04:33:56;;;;;;;5.43;1.75;;;;;;;19.16;60.78;100003.63;5050692;27;97409;-79
2021/07/02 04:36:22;;;;;;;5.32;2.28;;;;;;;19.15;60.99;100005.44;5048707;27;96892;-80
2021/07/02 04:38:48;;;;;;;3.83;1.88;;;;;;;19.21;61.05;100007.66;5070829;27;97648;-80
2021/07/02 04:41:13;;;;;;;5.20;2.50;;;;;;;19.29;60.75;100003.56;5051480;27;101595;-80
2021/07/02 04:43:39;;;;;;;7.50;2.15;;;;;;;19.21;61.36;100002.31;5043068;27;98135;-80
2021/07/02 04:46:04;;;;;;;3.83;2.53;;;;;;;19.28;60.94;99997.38;5050613;27;97423;-80
2021/07/02 04:48:30;;;;;;;3.88;2.35;;;;;;;19.24;61.28;100001.25;5040553;27;98699;-80
2021/07/02 04:50:55;;;;;;;5.80;2.38;;;;;;;19.27;61.16;100001.03;5040308;27;101835;-80
2021/07/02 04:53:21;;;;;;;3.65;2.45;;;;;;;19.36;61.18;100002.13;5054032;27;96923;-80
2021/07/02 04:55:47;;;;;;;3.28;2.30;;;;;;;19.45;60.59;100004.94;5036927;27;97427;-78
2021/07/02 04:58:13;;;;;;;4.43;2.50;;;;;;;19.50;60.82;100001.09;5071318;27;98029;-80
2021/07/02 05:00:39;;;;;;;5.20;2.50;;;;;;;19.41;61.13;99990.19;5071417;27;98039;-80
2021/07/02 05:03:05;;;;;;;4.93;2.47;;;;;;;19.50;60.98;100001.09;5033226;27;97157;-80
2021/07/02 05:05:31;;;;;;;5.50;2.83;;;;;;;19.52;60.89;100002.69;5037705;27;96864;-80
2021/07/02 05:07:57;;;;;;;4.88;3.28;;;;;;;19.68;60.54;100005.03;5050227;27;97468;-80
2021/07/02 05:10:23;;;;;;;3.80;3.05;;;;;;;19.76;59.77;100018.63;5027143;27;100877;-80
2021/07/02 05:12:48;;;;;;;5.57;2.72;;;;;;;19.86;59.27;100021.41;5039619;27;97003;-80
2021/07/02 05:15:14;;;;;;;5.43;3.08;;;;;;;19.99;59.17;100014.16;5058475;27;97057;-79
2021/07/02 05:17:40;;;;;;;5.70;2.80;;;;;;;20.05;58.65;100016.34;5037369;27;101673;-79
2021/07/02 05:20:06;;;;;;;4.50;2.50;;;;;;;20.35;58.11;100022.88;5047220;27;98101;-79
2021/07/02 05:22:32;;;;;;;3.63;2.60;;;;;;;20.86;57.39;100019.69;5061370;27;96684;-80
2021/07/02 05:24:57;;;;;;;6.75;2.63;;;;;;;21.01;56.80;100021.09;5053739;27;96858;-80
2021/07/02 05:27:23;;;;;;;4.50;3.05;;;;;;;21.36;56.13;100028.03;5054158;27;101169;-81
2021/07/02 05:29:48;;;;;;;3.97;2.72;;;;;;;21.59;55.78;100028.78;5045666;27;98047;-80
2021/07/02 05:32:14;;;;;;;9.60;2.38;;;;;;;21.94;54.53;100030.25;5037175;27;97215;-81
2021/07/02 05:34:39;;;;;;;2.53;2.20;;;;;;;22.34;53.51;100032.16;5067958;27;97274;-80
2021/07/02 05:37:05;;;;;;;4.72;2.00;;;;;;;22.67;52.92;100030.16;5056692;27;100081;-80
2021/07/02 05:39:31;;;;;;;3.50;2.05;;;;;;;23.06;51.74;100025.75;5057601;27;101144;-80
2021/07/02 05:41:57;;;;;;;6.13;2.70;;;;;;;23.24;51.86;100031.25;5056218;27;97127;-80
2021/07/02 05:44:22;;;;;;;2.72;2.17;;;;;;;23.22;51.51;100023.38;5076206;27;96957;-80
2021/07/02 05:46:48;;;;;;;3.05;2.30;;;;;;;23.34;50.96;100032.09;5036512;27;100881;-79
2021/07/02 05:49:15;;;;;;;3.42;2.72;;;;;;;23.35;50.55;100030.28;5036995;27;101138;-80
2021/07/02 05:51:40;;;;;;;3.03;2.40;;;;;;;23.59;50.43;100019.97;5052606;27;97148;-79
2021/07/02 05:54:06;;;;;;;3.20;2.20;;;;;;;24.12;49.57;100015.94;5036649;27;97363;-80
2021/07/02 05:56:32;;;;;;;2.85;2.33;;;;;;;24.80;48.12;100013.75;5053689;27;101071;-80
2021/07/02 05:58:59;;;;;;;4.93;2.38;;;;;;;24.72;47.85;100007.44;5070009;27;98106;-80
2021/07/02 06:01:25;;;;;;;4.90;2.63;;;;;;;25.58;46.36;100001.56;5053137;27;97303;-80
2021/07/02 06:03:51;;;;;;;6.43;2.55;;;;;;;26.92;43.68;100010.00;5029391;27;97000;-80
2021/07/02 06:06:18;;;;;;;4.68;2.30;;;;;;;27.95;41.58;100002.28;5056697;27;98011;-80
2021/07/02 06:08:44;;;;;;;4.45;1.95;;;;;;;28.94;39.69;100008.09;5057117;27;97846;-81
2021/07/02 06:11:09;;;;;;;6.78;2.33;;;;;;;30.20;38.16;100005.69;5044829;27;97001;-81
2021/07/02 06:13:35;;;;;;;2.88;2.08;;;;;;;30.10;37.61;100007.81;5051471;27;97129;-80
2021/07/02 06:16:00;;;;;;;7.28;2.13;;;;;;;31.23;35.58;100016.50;5055417;27;101101;-81
2021/07/02 06:18:26;;;;;;;2.65;2.13;;;;;;;32.06;34.32;100006.78;5056709;27;101013;-81
2021/07/02 06:20:52;;;;;;;2.78;2.08;;;;;;;32.76;33.61;100004.00;5052041;27;96662;-80
2021/07/02 06:23:19;;;;;;;3.10;2.00;;;;;;;32.09;34.20;100005.56;5027377;27;98100;-81
2021/07/02 06:25:44;;;;;;;3.40;2.13;;;;;;;30.52;35.76;100009.03;5049814;27;97663;-81
2021/07/02 06:28:10;;;;;;;5.50;2.10;;;;;;;31.60;34.38;100009.97;5044670;27;101757;-80
2021/07/02 06:30:36;;;;;;;4.47;1.85;;;;;;;33.46;32.12;100010.81;5060940;27;97351;-81
2021/07/02 06:33:01;;;;;;;4.00;1.95;;;;;;;34.16;30.92;100005.75;5055413;27;97286;-81
2021/07/02 06:35:27;;;;;;;4.78;2.00;;;;;;;35.26;29.59;100002.94;5062132;27;97202;-81
2021/07/02 06:37:52;;;;;;;5.68;1.75;;;;;;;35.11;29.60;99995.09;5050001;27;98074;-81
2021/07/02 06:40:19;;;;;;;3.42;1.65;;;;;;;33.22;32.19;99995.97;5047747;27;97193;-81
2021/07/02 06:42:44;;;;;;;5.65;1.63;;;;;;;30.86;35.31;100002.16;5050644;27;97260;-82
2021/07/02 06:45:12;;;;;;;2.83;1.90;;;;;;;30.86;35.19;100000.31;5015719;27;101499;-81
2021/07/02 06:48:01;;;;;;;3.08;2.00;;;;;;;32.75;32.59;99999.59;5044575;27;101831;-81
2021/07/02 06:50:31;;;;;;;3.40;1.50;;;;;;;34.10;30.57;99994.91;5049731;27;96763;-81
2021/07/02 06:52:58;;;;;;;1.50;1.35;;;;;;;34.22;30.30;99988.56;5052263;27;96847;-81
2021/07/02 06:55:25;;;;;;;1.50;1.40;;;;;;;34.36;30.30;99993.97;5049885;27;102116;-81
2021/07/02 06:57:51;;;;;;;1.90;1.02;;;;;;;35.30;28.85;99990.53;5048899;27;98517;-80
2021/07/02 07:00:18;;;;;;;2.83;1.40;;;;;;;36.67;27.65;99992.28;5046465;27;97300;-81
2021/07/02 07:02:44;;;;;;;1.30;1.17;;;;;;;35.21;29.09;99996.47;5070275;27;97226;-79
2021/07/02 07:05:10;;;;;;;1.40;1.30;;;;;;;34.96;29.83;99993.69;5045058;27;101502;-79
2021/07/02 07:07:35;;;;;;;1.10;1.00;;;;;;;34.53;29.94;100003.31;5036345;27;101430;-79
2021/07/02 07:10:05;;;;;;;1.42;1.30;;;;;;;34.90;29.75;100007.13;5051666;27;96831;-79
2021/07/02 07:12:31;;;;;;;2.78;1.50;;;;;;;36.78;27.97;100002.44;5070184;27;97007;-79
2021/07/02 07:14:57;;;;;;;1.80;1.50;;;;;;;36.90;28.00;100013.44;5051693;27;101531;-79
2021/07/02 07:17:23;;;;;;;2.35;1.10;;;;;;;36.17;28.37;100012.44;5053717;27;101006;-79
2021/07/02 07:19:49;;;;;;;1.45;1.35;;;;;;;34.47;30.30;100009.63;5052559;27;96826;-79
2021/07/02 07:22:15;;;;;;;3.00;1.50;;;;;;;33.19;31.89;100018.09;5052579;27;97207;-79
2021/07/02 07:24:41;;;;;;;1.83;1.67;;;;;;;32.62;32.56;100006.66;5068982;27;98256;-79
2021/07/02 07:27:06;;;;;;;1.52;1.42;;;;;;;32.42;32.59;100008.44;5029734;27;100938;-79
2021/07/02 07:29:32;;;;;;;4.22;1.65;;;;;;;32.12;33.43;100011.41;5045446;27;96774;-79
2021/07/02 07:31:58;;;;;;;1.75;1.42;;;;;;;32.06;33.23;100011.34;5043330;27;97013;-78
2021/07/02 07:34:43;;;;;;;2.65;1.60;;;;;;;32.06;33.75;100012.22;5027675;27;101064;-79
2021/07/02 07:37:16;;;;;;;3.05;2.38;;;;;;;31.62;34.70;100012.47;5035721;27;101921;-79
2021/07/02 07:39:42;;;;;;;2.20;1.42;;;;;;;31.69;34.25;100005.25;5027890;27;97233;-79
2021/07/02 07:42:07;;;;;;;2.95;1.60;;;;;;;31.89;34.16;100014.38;5047423;27;97878;-80
2021/07/02 07:44:33;;;;;;;2.90;1.52;;;;;;;31.89;34.13;100010.81;5028359;27;101333;-80
2021/07/02 07:46:59;;;;;;;4.00;1.80;;;;;;;32.19;33.05;100006.00;5041014;27;102042;-79
2021/07/02 07:49:25;;;;;;;4.40;1.95;;;;;;;31.99;33.61;100006.72;5039595;27;97264;-79
2021/07/02 07:54:19;;;;;;;3.38;1.77;;;;;;;33.52;31.67;99996.41;5065125;27;98382;-79
2021/07/02 07:56:51;;;;;;;21.02;5.75;;;;;;;34.25;31.63;100009.91;5035648;27;101553;-79
2021/07/02 07:59:21;;;;;;;26.95;7.25;;;;;;;34.32;30.86;100009.06;5045413;27;97162;-79
2021/07/02 08:01:47;;;;;;;7.22;2.80;;;;;;;35.27;30.14;99999.16;5042060;27;97044;-79
2021/07/02 08:04:19;;;;;;;13.48;4.07;;;;;;;36.21;28.80;100004.59;5053402;27;101281;-79
2021/07/02 08:06:45;;;;;;;5.22;2.50;;;;;;;36.86;28.04;99998.56;5044766;27;100936;-79
2021/07/02 08:09:12;;;;;;;4.95;2.40;;;;;;;37.10;27.63;99996.75;5045574;27;96909;-78
2021/07/02 08:11:38;;;;;;;3.33;1.40;;;;;;;35.64;28.40;99995.75;5034583;27;96972;-79
2021/07/02 08:14:04;;;;;;;7.10;2.22;;;;;;;36.67;27.59;99992.28;5051028;27;101481;-78
2021/07/02 08:16:30;;;;;;;4.93;2.17;;;;;;;36.92;27.23;99990.25;5050773;27;99319;-78
2021/07/02 08:18:56;;;;;;;7.95;2.88;;;;;;;37.29;26.87;99984.63;5050408;27;96683;-78
2021/07/02 08:21:21;;;;;;;6.15;2.50;;;;;;;37.34;26.45;99992.16;5050489;27;97129;-78
2021/07/02 08:30:11;;;;;;;5.60;1.52;;;;;;;33.81;30.55;99978.78;4948047;28;98127;-79
2021/07/02 08:32:36;;;;;;;6.45;1.25;;;;;;;32.38;32.67;99974.59;4943015;28;96976;-79
2021/07/02 08:35:02;;;;;;;2.17;1.27;;;;;;;31.28;34.48;99987.78;4929335;28;101231;-79
2021/07/02 08:37:33;;;;;;;2.22;1.45;;;;;;;30.23;35.80;99982.84;4952901;28;101393;-79
2021/07/02 08:39:58;;;;;;;3.97;1.40;;;;;;;30.74;36.20;99999.06;4956959;28;97125;-80
2021/07/02 08:42:25;;;;;;;3.42;1.08;;;;;;;30.51;35.74;99984.84;4953527;28;96879;-78
2021/07/02 08:44:50;;;;;;;1.75;1.10;;;;;;;30.09;36.55;100000.72;4938584;28;100692;-79
2021/07/02 08:47:16;;;;;;;1.65;1.08;;;;;;;30.22;36.82;99981.16;4928705;28;99693;-79
2021/07/02 08:49:44;;;;;;;3.35;1.40;;;;;;;30.08;37.35;99993.66;4949134;28;96877;-82
2021/07/02 08:52:09;;;;;;;4.70;1.60;;;;;;;29.91;37.58;99982.16;4952827;28;97048;-79
2021/07/02 08:54:35;;;;;;;3.03;1.60;;;;;;;29.51;38.13;99980.69;4942676;28;98442;-79
2021/07/02 08:57:00;;;;;;;4.43;1.27;;;;;;;30.07;36.72;99980.28;4949145;28;97995;-79
2021/07/02 08:59:29;;;;;;;2.97;1.55;;;;;;;32.40;33.88;99994.19;4943718;28;97219;-79
2021/07/02 09:01:55;;;;;;;2.15;1.27;;;;;;;31.73;34.44;99987.53;4951906;28;97283;-79
2021/07/02 09:04:25;;;;;;;1.20;1.10;;;;;;;32.01;34.08;99998.41;4943658;28;101312;-79
2021/07/02 09:07:12;;;;;;;2.83;1.20;;;;;;;31.79;34.03;99986.72;4948169;28;98963;-79
2021/07/02 09:09:48;;;;;;;1.40;1.30;;;;;;;32.35;33.72;99961.38;4935048;28;97373;-80
2021/07/02 09:12:14;;;;;;;2.92;1.20;;;;;;;32.27;33.54;99975.97;4953950;28;96861;-79
2021/07/02 09:14:42;;;;;;;2.92;1.58;;;;;;;32.01;34.16;99969.38;4951258;28;97991;-81
2021/07/02 09:17:09;;;;;;;3.08;1.60;;;;;;;30.91;35.20;99969.91;4954141;28;101362;-79
2021/07/02 09:19:35;;;;;;;6.00;1.55;;;;;;;31.27;34.91;99967.13;4921566;28;97027;-79
2021/07/02 09:22:18;;;;;;;4.05;1.33;;;;;;;30.50;35.93;99978.59;4937028;28;97299;-79
2021/07/02 09:24:48;;;;;;;1.60;1.20;;;;;;;29.17;37.75;99975.72;4953075;28;98218;-81
2021/07/02 09:27:25;;;;;;;3.65;1.20;;;;;;;28.29;39.66;99988.50;4937297;28;102711;-78
2021/07/02 09:30:06;;;;;;;4.43;1.67;;;;;;;28.07;40.78;99990.13;4941355;28;97017;-78
2021/07/02 09:32:33;;;;;;;2.75;1.40;;;;;;;28.12;40.59;99986.88;4953384;28;96760;-76
2021/07/02 09:35:01;;;;;;;5.28;1.48;;;;;;;28.47;39.89;99996.38;4936694;28;101790;-79
2021/07/02 09:37:35;;;;;;;1.42;1.20;;;;;;;28.80;39.06;99993.53;4923074;28;101451;-82
2021/07/02 09:40:11;;;;;;;4.57;1.20;;;;;;;29.84;37.73;99985.78;4940183;28;97281;-78
2021/07/02 09:42:36;;;;;;;4.10;1.33;;;;;;;30.72;36.73;99986.75;4957127;28;97222;-79
2021/07/02 09:45:09;;;;;;;2.05;1.40;;;;;;;30.76;36.25;99977.22;4942113;28;101294;-82
2021/07/02 09:47:35;;;;;;;2.63;1.27;;;;;;;30.95;36.19;99982.06;4968549;28;99035;-79
2021/07/02 09:50:26;;;;;;;4.05;1.80;;;;;;;30.26;37.24;99987.03;4929769;28;97174;-81
2021/07/02 09:52:59;;;;;;;1.40;1.20;;;;;;;30.29;37.36;99992.91;4943552;28;96964;-78
2021/07/02 09:55:29;;;;;;;3.33;1.60;;;;;;;30.50;37.46;99984.00;4939251;28;101675;-79
2021/07/02 09:58:08;;;;;;;2.17;1.50;;;;;;;30.22;37.75;99994.69;4962175;28;98564;-82
2021/07/02 10:00:42;;;;;;;4.23;1.50;;;;;;;29.72;38.66;99986.22;4948495;28;97151;-81
2021/07/02 10:03:08;;;;;;;3.55;1.80;;;;;;;29.06;39.68;99985.94;4943424;28;98018;-79
2021/07/02 10:05:53;;;;;;;3.03;1.63;;;;;;;28.57;40.28;99996.19;4944382;28;102022;-79
2021/07/02 10:08:21;;;;;;;3.40;1.77;;;;;;;28.26;41.00;99998.81;4944356;28;101413;-79
2021/07/02 10:10:48;;;;;;;1.75;1.30;;;;;;;28.01;41.63;99998.88;4948425;28;96682;-79
2021/07/02 10:13:14;;;;;;;2.35;1.50;;;;;;;27.81;42.04;100003.84;4940563;28;96992;-81
2021/07/02 10:15:42;;;;;;;2.67;1.38;;;;;;;27.81;42.31;100005.66;4939171;28;101581;-82
2021/07/02 10:18:11;;;;;;;3.33;1.30;;;;;;;27.58;42.57;100011.75;4939717;28;101691;-77
2021/07/02 10:20:39;;;;;;;4.57;1.60;;;;;;;27.54;42.41;100007.69;4973553;28;97158;-82
2021/07/02 10:23:06;;;;;;;1.17;1.08;;;;;;;27.63;42.22;100016.63;4939404;28;97072;-82
2021/07/02 10:25:31;;;;;;;3.10;1.45;;;;;;;27.59;41.96;100016.13;4939534;28;101408;-81
2021/07/02 10:27:58;;;;;;;5.75;2.13;;;;;;;27.43;42.22;100003.50;4939779;28;101215;-82
2021/07/02 10:30:23;;;;;;;3.75;1.75;;;;;;;27.27;42.98;100008.91;4939403;28;96819;-82
2021/07/02 10:32:53;;;;;;;4.93;2.35;;;;;;;27.44;43.41;100015.97;4942845;28;96941;-82
2021/07/02 10:35:19;;;;;;;2.25;1.83;;;;;;;27.42;43.04;100011.75;4954900;28;98309;-81
2021/07/02 10:37:47;;;;;;;2.47;2.03;;;;;;;27.53;42.77;100024.91;4960906;28;98316;-80
2021/07/02 10:40:39;;;;;;;5.88;2.22;;;;;;;27.51;42.96;100021.50;4939976;28;96800;-81
2021/07/02 10:43:10;;;;;;;3.28;2.78;;;;;;;27.67;42.96;100012.59;4953532;28;97050;-81
2021/07/02 10:45:37;;;;;;;5.30;2.85;;;;;;;27.93;42.53;100029.44;4936956;28;101180;-81
2021/07/02 10:48:03;;;;;;;4.55;2.60;;;;;;;27.86;42.06;100014.09;4952108;28;98018;-81
2021/07/02 10:50:41;;;;;;;4.63;3.08;;;;;;;27.86;42.55;100028.41;4941724;28;97268;-81
2021/07/02 10:53:23;;;;;;;4.25;2.85;;;;;;;27.72;42.62;100029.06;4952632;28;97360;-81
2021/07/02 10:55:49;;;;;;;7.03;3.00;;;;;;;27.49;43.36;100026.25;4926304;28;101569;-81
2021/07/02 10:58:15;;;;;;;6.25;2.83;;;;;;;27.20;43.67;100021.34;4939830;28;101381;-82
2021/07/02 11:01:11;;;;;;;5.80;2.72;;;;;;;27.23;43.76;100039.88;4936728;28;96844;-81
2021/07/02 11:03:37;;;;;;;5.32;2.85;;;;;;;27.20;44.33;100050.97;4942644;28;97053;-81
2021/07/02 11:06:39;;;;;;;7.38;3.47;;;;;;;27.14;44.39;100040.81;4956366;28;101578;-83
2021/07/02 11:09:05;;;;;;;3.58;2.70;;;;;;;27.22;44.11;100039.00;4922129;28;101705;-80
2021/07/02 11:12:09;;;;;;;4.68;2.88;;;;;;;27.07;44.41;100051.44;4935411;28;97015;-80
2021/07/02 11:14:54;;;;;;;4.47;3.08;;;;;;;26.82;44.59;100045.13;4949934;28;97943;-79
2021/07/02 11:17:23;;;;;;;4.53;2.72;;;;;;;26.64;45.46;100054.16;4967516;28;98374;-79
2021/07/02 11:20:09;;;;;;;5.68;3.35;;;;;;;26.51;45.61;100048.41;4957280;28;101586;-81
2021/07/02 11:22:45;;;;;;;6.63;3.38;;;;;;;26.51;45.94;100050.25;4955663;28;97166;-79
2021/07/02 11:25:29;;;;;;;5.45;3.70;;;;;;;26.41;45.93;100055.69;4950276;28;96870;-80
2021/07/02 11:28:05;;;;;;;3.83;2.90;;;;;;;26.23;46.32;100045.03;4958300;28;98300;-79
2021/07/02 11:30:38;;;;;;;4.68;2.88;;;;;;;26.50;46.31;100059.31;4958239;28;101185;-81
2021/07/02 11:33:07;;;;;;;6.45;4.15;;;;;;;26.27;46.36;100057.16;4948522;28;96841;-80
2021/07/02 11:35:47;;;;;;;7.82;3.75;;;;;;;26.18;46.53;100058.13;4976402;28;96857;-80
2021/07/02 11:38:23;;;;;;;4.82;3.50;;;;;;;26.27;47.10;100057.16;4949222;28;98483;-79
2021/07/02 11:41:00;;;;;;;8.40;4.07;;;;;;;26.26;47.13;100055.47;4902401;28;101630;-77